Skip to main content

Search Topomaps Inventory

This database allows you to search for topographic maps by quadrangle (map name). It includes information such as the year of publication, scale, USGS number, latitude and longitude etc. Search terms may be entered in lower case or upper case. Truncation is automatic, so typing "new brun" will retrieve records for "new brunswick".

Enter a search using the text field and options below. Click the Search button to run the query.
Columns can be sorted by clicking on the column name (e.g. Map Name).

Map Name Year Location Scale SE Latitude SE Longitude Sort descending Map Type
DOVER, NC 1982 LSM - 1st floor 1:25,000 N350730 W0772230 TOPOGRAPHICAL METRIC
SPEED, NC 1993 LSM - 1st floor 1:25,000 N355230 W0772230 TOPOGRAPHICAL METRIC
GREENVILLE NW, NC 1998 LSM - 1st floor 1:25,000 N353730 W0772230 TOPOGRAPHICAL METRIC
GREENVILLE SW, NC 1998 LSM - 1st floor 1:25,000 N353000 W0772230 TOPOGRAPHICAL METRIC
GRIFTON, NC 1988 LSM - 1st floor 1:25,000 N351500 W0772230 TOPOGRAPHICAL METRIC
CONETOE, NC 1993 LSM - 1st floor 1:25,000 N354500 W0772230 TOPOGRAPHICAL METRIC
KINSTON, NC 1998 LSM - 1st floor 1:25,000 N351500 W0773000 TOPOGRAPHICAL METRIC
FARMVILLE, NC 1988 LSM - 1st floor 1:25,000 N353000 W0773000 TOPOGRAPHICAL METRIC
DINWIDDIE, VA 1978 LSM - 1st floor 1:50,000 N370000 W0773000 TOPOGRAPHICAL METRIC
CATLETT, VA 1983 LSM - 1st floor 1:50,000 N383000 W0773000 TOPOGRAPHICAL METRIC
HAWS RUN, NC 1981 LSM - 1st floor 1:25,000 N343730 W0773000 TOPOGRAPHICAL METRIC
FOLKSTONE, NC 1981 LSM - 1st floor 1:25,000 N343000 W0773000 TOPOGRAPHICAL METRIC
TARBORO, NC 1981 LSM - 1st floor 1:25,000 N355230 W0773000 TOPOGRAPHICAL METRIC
HOOKERTON, NC 1988 LSM - 1st floor 1:25,000 N352230 W0773000 TOPOGRAPHICAL METRIC
MONTPELIER, VA 1989 LSM - 1st floor 1:50,000 N374500 W0773000 TOPOGRAPHICAL METRIC
MIDDLEBURG, VA 1977 LSM - 1st floor 1:50,000 N384500 W0773000 TOPOGRAPHICAL METRIC
WILDERNESS, VA 1977 LSM - 1st floor 1:50,000 N381500 W0773000 TOPOGRAPHICAL METRIC
MASSAPONAX, VA 1977 LSM - 1st floor 1:50,000 N380000 W0773000 TOPOGRAPHICAL METRIC
MAPLE HILL, NC 1983 LSM - 1st floor 1:50,000 N343000 W0773000 TOPOGRAPHICAL METRIC
CHESTERFIELD, VA 1979 LSM - 1st floor 1:50,000 N371500 W0773000 TOPOGRAPHICAL METRIC
CATHERINE LAKE, NC 1988 LSM - 1st floor 1:25,000 N344500 W0773000 TOPOGRAPHICAL METRIC
RICHLANDS, NC 1981 LSM - 1st floor 1:25,000 N345230 W0773000 TOPOGRAPHICAL METRIC
TOPSAIL, NC 1983 LSM - 1st floor 1:50,000 N341500 W0773000 TOPOGRAPHICAL METRIC
COMFORT, NC 1988 LSM - 1st floor 1:25,000 N350000 W0773000 TOPOGRAPHICAL METRIC
FALKLAND, NC 1997 LSM - 1st floor 1:25,000 N353730 W0773000 TOPOGRAPHICAL METRIC
RIVERMONT, NC 1998 LSM - 1st floor 1:25,000 N350730 W0773000 TOPOGRAPHICAL METRIC
MCKENNEY, VA 1977 LSM - 1st floor 1:50,000 N364500 W0773000 TOPOGRAPHICAL METRIC
OLD SPARTA, NC 1988 LSM - 1st floor 1:25,000 N354500 W0773000 TOPOGRAPHICAL METRIC
WALSTONBURG, NC 1981 LSM - 1st floor 1:25,000 N353000 W0773730 TOPOGRAPHICAL METRIC
DEEP RUN, NC 1998 LSM - 1st floor 1:25,000 N350730 W0773730 TOPOGRAPHICAL METRIC
HARTSEASE, NC 1981 LSM - 1st floor 1:25,000 N355230 W0773730 TOPOGRAPHICAL METRIC
FOUNTAIN, NC 1981 LSM - 1st floor 1:25,000 N353730 W0773730 TOPOGRAPHICAL METRIC
LYMAN, NC 1988 LSM - 1st floor 1:25,000 N344500 W0773730 TOPOGRAPHICAL METRIC
SNOW HILL, NC 1988 LSM - 1st floor 1:25,000 N352230 W0773730 TOPOGRAPHICAL METRIC
PINETOPS, NC 1997 LSM - 1st floor 1:25,000 N354500 W0773730 TOPOGRAPHICAL METRIC
PINK HILL, NC 1988 LSM - 1st floor 1:25,000 N350000 W0773730 TOPOGRAPHICAL METRIC
MAPLE HILL SW, NC 1981 LSM - 1st floor 1:25,000 N343000 W0773730 TOPOGRAPHICAL METRIC
MAPLE HILL, NC 1988 LSM - 1st floor 1:25,000 N343730 W0773730 TOPOGRAPHICAL METRIC
POTTERS HILL, NC 1980 LSM - 1st floor 1:25,000 N345230 W0773730 TOPOGRAPHICAL METRIC
FALLING CREEK, NC 1998 LSM - 1st floor 1:25,000 N351500 W0773730 TOPOGRAPHICAL METRIC
LAWRENCEVILLE, VA 1978 LSM - 1st floor 1:50,000 N364500 W0774500 TOPOGRAPHICAL METRIC
ORBISONIA, PA 1978 LSM - 1st floor 1:50,000 N400000 W0774500 TOPOGRAPHICAL METRIC
SEVEN SPRINGS, NC 1988 LSM - 1st floor 1:25,000 N350730 W0774500 TOPOGRAPHICAL METRIC
AMELIA COURT HOUSE, VA 1979 LSM - 1st floor 1:50,000 N371500 W0774500 TOPOGRAPHICAL METRIC
WHITE PLAINS, VA 1976 LSM - 1st floor 1:50,000 N363000 W0774500 TOPOGRAPHICAL METRIC
CHINQUAPIN, NC 1988 LSM - 1st floor 1:25,000 N344500 W0774500 TOPOGRAPHICAL METRIC
BURGAW, NC 1983 LSM - 1st floor 1:50,000 N343000 W0774500 TOPOGRAPHICAL METRIC
PIN HOOK, NC 1981 LSM - 1st floor 1:25,000 N343730 W0774500 TOPOGRAPHICAL METRIC
RENOVO WEST, PA 1946 LSM - 1st floor 1:62,500 N411500 W0774500 TOPOGRAPHICAL FEET
BEULAVILLE, NC 1988 LSM - 1st floor 1:25,000 N345230 W0774500 TOPOGRAPHICAL METRIC
LA GRANGE, NC 1988 LSM - 1st floor 1:25,000 N351500 W0774500 TOPOGRAPHICAL METRIC
WELLVILLE, VA 1976 LSM - 1st floor 1:50,000 N370000 W0774500 TOPOGRAPHICAL METRIC
GLENORA, VA 1977 LSM - 1st floor 1:50,000 N380000 W0774500 TOPOGRAPHICAL METRIC
CAPE FEAR, NC 1983 LSM - 1st floor 1:50,000 N334500 W0774500 TOPOGRAPHICAL METRIC
JASON, NC 1988 LSM - 1st floor 1:25,000 N352230 W0774500 TOPOGRAPHICAL METRIC
ALBERTSON, NC 1988 LSM - 1st floor 1:25,000 N350000 W0774500 TOPOGRAPHICAL METRIC
STAG PARK, NC 1981 LSM - 1st floor 1:25,000 N343000 W0774500 TOPOGRAPHICAL METRIC
WILLIAMS, NC 1988 LSM - 1st floor 1:25,000 N350730 W0775230 TOPOGRAPHICAL METRIC
SOUTHEAST GOLDSBORO, NC 1998 LSM - 1st floor 1:25,000 N351500 W0775230 TOPOGRAPHICAL METRIC
CHARITY, NC 1981 LSM - 1st floor 1:25,000 N344500 W0775230 TOPOGRAPHICAL METRIC
KENANSVILLE, NC 1980 LSM - 1st floor 1:25,000 N345230 W0775230 TOPOGRAPHICAL METRIC
SUMMERLINS CROSSROAD, NC 1988 LSM - 1st floor 1:25,000 N350000 W0775230 TOPOGRAPHICAL METRIC
WALLACE EAST, NC 1981 LSM - 1st floor 1:25,000 N343730 W0775230 TOPOGRAPHICAL METRIC
BURGAW, NC 1981 LSM - 1st floor 1:25,000 N343000 W0775230 TOPOGRAPHICAL METRIC
NORTHEAST GOLDSBORO, NC 1998 LSM - 1st floor 1:25,000 N352230 W0775230 TOPOGRAPHICAL METRIC
GEORGETOWN ATLANTIC COAST, SC 1980 LSM - 1st floor 1:250,000 N330000 W0775300 ECOLOGICAL INVENTORY
GEORGETOWN L-76, US 1974 LSM - 1st floor 1:250,000 N330000 W0775300 LAND USE/LAND COVER - BASE
GEORGETOWN, SC 1978 LSM - 1st floor 1:250,000 N330000 W0775300 TOPOBATHYMETRIC
WEST VIRGINIA W/TOPO (SHADED), WV 1963 LSM - 1st floor 1:500,000 N380000 W0780000 SHADED RELIEF MAP
SOUTH BOSTON, VA 1984 LSM - 1st floor 1:100,000 N363000 W0780000 TOPOGRAPHICAL METRIC
WEST VIRGINIA WITH TOPO, WV 1984 LSM - 1st floor 1:500,000 N380000 W0780000 STATE BASE - TOPOGRAPHIC
BUFFALO, NY 1962 LSM - 1st floor 1:250,000 N420000 W0780000 TOPOGRAPHICAL FEET
WEST VIRGINIA WITHOUT TOPO, WV 1963 LSM - 1st floor 1:500,000 N380000 W0780000 STATE BASE - PLANIMETRIC
FAYETTEVILLE, NC 1986 LSM - 1st floor 1:100,000 N350000 W0780000 TOPOGRAPHICAL METRIC
ROANOKE, VA 1987 LSM - 1st floor 1:250,000 N370000 W0780000 LINE MAP W/SATELLITE
ROANOKE, VA 1971 LSM - 1st floor 1:250,000 N370000 W0780000 TOPOGRAPHICAL FEET
BRADFORD, PA 1980 LSM - 1st floor 1:100,000 N413000 W0780000 TOPOGRAPHICAL METRIC
CURRIE, NC 1983 LSM - 1st floor 1:25,000 N342230 W0780000 TOPOGRAPHICAL METRIC
JOHNSTOWN, PA 1981 LSM - 1st floor 1:100,000 N400000 W0780000 TOPOGRAPHICAL METRIC
FRONT ROYAL, VA 1986 LSM - 1st floor 1:100,000 N383000 W0780000 TOPOGRAPHICAL METRIC
PITTSBURGH L-34, US 1972 LSM - 1st floor 1:250,000 N400000 W0780000 LAND USE/LAND COVER - BASE
LELAND, NC 1997 LSM - 1st floor 1:25,000 N341500 W0780000 TOPOGRAPHICAL METRIC
GREENSBORO, NC 1953 LSM - 1st floor 1:250,000 N360000 W0780000 TOPOGRAPHICAL FEET
WARREN L-36, US 1973 LSM - 1st floor 1:250,000 N410000 W0780000 LAND USE/LAND COVER - BASE
CUMBERLAND L-111, US 1973 LSM - 1st floor 1:250,000 N390000 W0780000 LAND USE/LAND COVER - BASE
PITTSBURGH, PA 1959 LSM - 1st floor 1:250,000 N400000 W0780000 TOPOGRAPHICAL FEET
CHARLOTTESVILLE, VA 1984 LSM - 1st floor 1:100,000 N380000 W0780000 TOPOGRAPHICAL METRIC
BOLIVIA, NC 1988 LSM - 1st floor 1:50,000 N340000 W0780000 TOPOGRAPHICAL METRIC
WARREN, PA 1969 LSM - 1st floor 1:250,000 N410000 W0780000 TOPOGRAPHICAL FEET
CUMBERLAND, MD 1956 LSM - 1st floor 1:250,000 N390000 W0780000 TOPOGRAPHICAL FEET
BUFFALO, NY 1984 LSM - 1st floor 1:100,000 N423000 W0780000 TOPOGRAPHICAL METRIC
OLEAN, NY 1986 LSM - 1st floor 1:100,000 N420000 W0780000 TOPOGRAPHICAL METRIC
CHARLOTTESVILLE, VA 1956 LSM - 1st floor 1:250,000 N380000 W0780000 TOPOGRAPHICAL FEET
JETERSVILLE, VA 1979 LSM - 1st floor 1:50,000 N371500 W0780000 TOPOGRAPHICAL METRIC
HENDERSON, NC 1989 LSM - 1st floor 1:100,000 N360000 W0780000 TOPOGRAPHICAL METRIC
CREWE, VA 1976 LSM - 1st floor 1:50,000 N370000 W0780000 TOPOGRAPHICAL METRIC
ROSEWOOD, NC 1983 LSM - 1st floor 1:50,000 N351500 W0780000 TOPOGRAPHICAL METRIC
RALEIGH, NC 1990 LSM - 1st floor 1:100,000 N353000 W0780000 TOPOGRAPHICAL METRIC
CUMBERLAND, MD 1981 LSM - 1st floor 1:100,000 N393000 W0780000 TOPOGRAPHICAL METRIC
RALEIGH, NC 1953 LSM - 1st floor 1:250,000 N350000 W0780000 TOPOGRAPHICAL FEET
GERRARDSTOWN, WV 1979 LSM - 1st floor 1:50,000 N391500 W0780000 TOPOGRAPHICAL METRIC
WEST VIRGINIA BASE W/HIGHWAYS, WV 1963 LSM - 1st floor 1:1,000,000 N380000 W0780000 STATE BASE - PLANIMETRIC
APPOMATTOX, VA 1979 LSM - 1st floor 1:100,000 N370000 W0780000 TOPOGRAPHICAL METRIC
ACME, NC 1983 LSM - 1st floor 1:50,000 N341500 W0780000 TOPOGRAPHICAL METRIC
WHITEVILLE, NC 1990 LSM - 1st floor 1:100,000 N340000 W0780000 TOPOGRAPHICAL METRIC
WINCHESTER, VA 1977 LSM - 1st floor 1:50,000 N390000 W0780000 TOPOGRAPHICAL METRIC
WINCHESTER, VA 1983 LSM - 1st floor 1:100,000 N390000 W0780000 TOPOGRAPHICAL METRIC
TYRONE, PA 1929 LSM - 1st floor 1:62,500 N403000 W0780000 TOPOGRAPHICAL FEET
MOUNT OLIVE, NC 1988 LSM - 1st floor 1:50,000 N350000 W0780000 TOPOGRAPHICAL METRIC
TYRONE, PA 1984 LSM - 1st floor 1:100,000 N403000 W0780000 TOPOGRAPHICAL METRIC
FLORENCE ATLANTIC COAST, SC 1980 LSM - 1st floor 1:250,000 N340000 W0780000 ECOLOGICAL INVENTORY
JAMES ISLAND ATLANTIC COAST, SC 1980 LSM - 1st floor 1:250,000 N320000 W0780000 ECOLOGICAL INVENTORY
FLORENCE, SC 1974 LSM - 1st floor 1:250,000 N340000 W0780000 TOPOGRAPHICAL FEET
ELIZABETHTOWN, NC 1982 LSM - 1st floor 1:100,000 N343000 W0780000 TOPOGRAPHICAL METRIC
JAMES ISLAND L-59, US 1974 LSM - 1st floor 1:250,000 N320000 W0780000 LAND USE/LAND COVER - BASE
LOCKPORT, NY 1984 LSM - 1st floor 1:100,000 N430000 W0780000 TOPOGRAPHICAL METRIC
JAMES ISLAND, SC 1969 LSM - 1st floor 1:250,000 N320000 W0780000 TOPOBATHYMETRIC
TORONTO, NY 1962 LSM - 1st floor 1:250,000 N430000 W0780000 TOPOGRAPHICAL FEET
MYRTLE BEACH, SC 1990 LSM - 1st floor 1:100,000 N333000 W0780000 TOPOGRAPHICAL METRIC
CLEARFIELD, PA 1983 LSM - 1st floor 1:100,000 N410000 W0780000 TOPOGRAPHICAL METRIC
DILLWYN, VA 1979 LSM - 1st floor 1:100,000 N373000 W0780000 TOPOGRAPHICAL METRIC
ACME, NC 1984 LSM - 1st floor 1:25,000 N341500 W0780730 TOPOGRAPHICAL METRIC
POINT CASWELL, NC 1997 LSM - 1st floor 1:25,000 N342230 W0780730 TOPOGRAPHICAL METRIC
CAPON BRIDGE, WV 1979 LSM - 1st floor 1:50,000 N391500 W0781500 TOPOGRAPHICAL METRIC
BOLTON, NC 1964 LSM - 1st floor 1:50,000 N341500 W0781500 TOPOGRAPHICAL METRIC
ALTOONA, PA 1920 LSM - 1st floor 1:62,500 N403000 W0781500 TOPOGRAPHICAL FEET
MIDDLETOWN, VA 1977 LSM - 1st floor 1:50,000 N390000 W0781500 TOPOGRAPHICAL METRIC
SHENANDOAH NP (NORTH SECTION), VA 1969 LSM - 1st floor 1:62,500 N383500 W0781500 NATL PARK - FEET
CORFU, NY 1984 LSM - 1st floor 1:25,000 N425230 W0781500 TOPOGRAPHICAL METRIC
STRASBURG, VA 1947 LSM - 1st floor 1:62,500 N384500 W0781500 SHADED RELIEF MAP
NEWTON GROVE, NC 1981 LSM - 1st floor 1:50,000 N350000 W0781500 TOPOGRAPHICAL METRIC
LYNDONVILLE, NY 1979 LSM - 1st floor 1:25,000 N431500 W0782230 TOPOGRAPHICAL METRIC
MEDINA, NY 1980 LSM - 1st floor 1:25,000 N430730 W0782230 TOPOGRAPHICAL METRIC
AKRON, NY 1981 LSM - 1st floor 1:25,000 N430000 W0782230 TOPOGRAPHICAL METRIC
SHENANDOAH NP (CENTRAL SECTION, VA 1969 LSM - 1st floor 1:62,500 N382000 W0782500 NATL PARK - FEET
GASPORT, NY 1979 LSM - 1st floor 1:25,000 N430730 W0783000 TOPOGRAPHICAL METRIC
DUNN, NC 1987 LSM - 1st floor 1:50,000 N351500 W0783000 TOPOGRAPHICAL METRIC
WOLCOTTSVILLE, NY 1980 LSM - 1st floor 1:25,000 N430000 W0783000 TOPOGRAPHICAL METRIC
WARDENSVILLE, WV 1979 LSM - 1st floor 1:50,000 N390000 W0783000 TOPOGRAPHICAL METRIC
LANCASTER, NY 1982 LSM - 1st floor 1:25,000 N425230 W0783000 TOPOGRAPHICAL METRIC
RALEIGH, NC 1980 LSM - 1st floor 1:50,000 N354500 W0783000 TOPOGRAPHICAL METRIC
BARKER, NY 1980 LSM - 1st floor 1:25,000 N431500 W0783000 TOPOGRAPHICAL METRIC
STEDMAN, NC 1980 LSM - 1st floor 1:50,000 N350000 W0783000 TOPOGRAPHICAL METRIC
HANGING ROCK, WV 1979 LSM - 1st floor 1:50,000 N391500 W0783000 TOPOGRAPHICAL METRIC
LOCKPORT, NY 1980 LSM - 1st floor 1:25,000 N430730 W0783730 TOPOGRAPHICAL METRIC
NEWFANE, NY 1978 LSM - 1st floor 1:25,000 N431500 W0783730 TOPOGRAPHICAL METRIC
CLARENCE CENTER, NY 1980 LSM - 1st floor 1:25,000 N430000 W0783730 TOPOGRAPHICAL METRIC
SHENANDOAH NP (SOUTH SECTION), VA 1969 LSM - 1st floor 1:62,500 N380000 W0784000 NATL PARK - FEET
DURHAM NORTH, NC 1980 LSM - 1st floor 1:50,000 N360000 W0784500 TOPOGRAPHICAL METRIC
OCEAN FOREST, SC 1984 LSM - 1st floor 1:25,000 N333730 W0784500 TOPOGRAPHICAL METRIC
WILSON, NY 1979 LSM - 1st floor 1:25,000 N431500 W0784500 TOPOGRAPHICAL METRIC
MOOREFIELD, WV 1979 LSM - 1st floor 1:50,000 N390000 W0784500 TOPOGRAPHICAL METRIC
KEYSER, WV 1979 LSM - 1st floor 1:50,000 N391500 W0784500 TOPOGRAPHICAL METRIC
LILLINGTON, NC 1980 LSM - 1st floor 1:50,000 N351500 W0784500 TOPOGRAPHICAL METRIC
HAMMOND, SC 1984 LSM - 1st floor 1:25,000 N335230 W0784500 TOPOGRAPHICAL METRIC
HAND, SC 1992 LSM - 1st floor 1:25,000 N334500 W0784500 TOPOGRAPHICAL METRIC
CAMBRIA, NY 1980 LSM - 1st floor 1:25,000 N430730 W0784500 TOPOGRAPHICAL METRIC
TONAWANDA EAST, NY 1980 LSM - 1st floor 1:25,000 N430000 W0784500 TOPOGRAPHICAL METRIC
ROXBORO, NC 1983 LSM - 1st floor 1:50,000 N361500 W0784500 TOPOGRAPHICAL METRIC
TROY, NC 1983 LSM - 1st floor 1:50,000 N351500 W0784500 TOPOGRAPHICAL METRIC
SHELL, SC 1992 LSM - 1st floor 1:25,000 N335230 W0785230 TOPOGRAPHICAL METRIC
RANSOMVILLE, NY 1980 LSM - 1st floor 1:25,000 N430730 W0785230 TOPOGRAPHICAL METRIC
NIXONVILLE, SC 1984 LSM - 1st floor 1:25,000 N334500 W0785230 TOPOGRAPHICAL METRIC
SIXMILE CREEK, NY 1974 LSM - 1st floor 1:25,000 N431500 W0785230 TOPOGRAPHICAL METRIC
MYRTLE BEACH, SC 1984 LSM - 1st floor 1:25,000 N333730 W0785230 TOPOGRAPHICAL METRIC
SURFSIDE BEACH, SC 1984 LSM - 1st floor 1:25,000 N333000 W0785230 TOPOGRAPHICAL METRIC
TONAWANDA WEST, NY 1980 LSM - 1st floor 1:25,000 N430000 W0785230 TOPOGRAPHICAL METRIC
GREATER PITTSBURGH REGION, PA 1971 LSM - 1st floor 1:125,000 N395500 W0785500 REGIONAL - FEET
SANFORD, NC 1982 LSM - 1st floor 1:50,000 N351500 W0790000 TOPOGRAPHICAL METRIC
ROANOKE, VA 1985 LSM - 1st floor 1:100,000 N370000 W0790000 TOPOGRAPHICAL METRIC
MURRELLS INLET, SC 1989 LSM - 1st floor 1:50,000 N333000 W0790000 TOPOGRAPHICAL METRIC
CHAPEL HILL, NC 1984 LSM - 1st floor 1:100,000 N353000 W0790000 TOPOGRAPHICAL METRIC
SOUTHERN PINES, NC 1982 LSM - 1st floor 1:100,000 N350000 W0790000 TOPOGRAPHICAL METRIC
OIL CITY, PA 1983 LSM - 1st floor 1:100,000 N410000 W0790000 TOPOGRAPHICAL METRIC
GEORGETOWN, SC 1986 LSM - 1st floor 1:100,000 N330000 W0790000 TOPOGRAPHICAL METRIC
GRANTSVILLE, MD 1979 LSM - 1st floor 1:50,000 N393000 W0790000 TOPOGRAPHICAL METRIC
BUENA VISTA, VA 1986 LSM - 1st floor 1:100,000 N373000 W0790000 TOPOGRAPHICAL METRIC
SOUTH CAROLINA, SC 1970 LSM - 1st floor 1:1,000,000 N320000 W0790000 STATE BASE - PLANIMETRIC
SOUTH CAROLINA, SC 1970 LSM - 1st floor 1:500,000 N320000 W0790000 STATE BASE - PLANIMETRIC
SOUTH CAROLINA, SC 1970 LSM - 1st floor 1:500,000 N320000 W0790000 STATE BASE - TOPOGRAPHIC
KINGSTREE, SC 1986 LSM - 1st floor 1:100,000 N333000 W0790000 TOPOGRAPHICAL METRIC
STAUNTON, VA 1986 LSM - 1st floor 1:100,000 N380000 W0790000 TOPOGRAPHICAL METRIC
SOUTH CAROLINA, SC 1970 LSM - 1st floor 1:500,000 N320000 W0790000 SHADED RELIEF MAP
KINGWOOD, WV 1981 LSM - 1st floor 1:100,000 N390000 W0790000 TOPOGRAPHICAL METRIC
INDIANA, PA 1983 LSM - 1st floor 1:100,000 N403000 W0790000 TOPOGRAPHICAL METRIC
GREENSBORO, NC 1984 LSM - 1st floor 1:100,000 N360000 W0790000 TOPOGRAPHICAL METRIC
PITTSBURGH EAST, PA 1986 LSM - 1st floor 1:100,000 N400000 W0790000 TOPOGRAPHICAL METRIC
SILVER CREEK, NY 1986 LSM - 1st floor 1:100,000 N423000 W0790000 TOPOGRAPHICAL METRIC
LEWISTON, NY 1993 LSM - 1st floor 1:25,000 N430730 W0790000 TOPOGRAPHICAL METRIC
NIAGARA FALLS, NY 1986 LSM - 1st floor 1:100,000 N430000 W0790000 TOPOGRAPHICAL METRIC
FLORENCE, SC 1983 LSM - 1st floor 1:100,000 N340000 W0790000 TOPOGRAPHICAL METRIC
JAMES ISLAND, SC 1990 LSM - 1st floor 1:100,000 N323000 W0790000 TOPOGRAPHICAL METRIC
WARREN, PA 1983 LSM - 1st floor 1:100,000 N413000 W0790000 TOPOGRAPHICAL METRIC
JAMESTOWN, NY 1986 LSM - 1st floor 1:100,000 N420000 W0790000 TOPOGRAPHICAL METRIC
MORGANTOWN, WV 1979 LSM - 1st floor 1:100,000 N393000 W0790000 TOPOGRAPHICAL METRIC
ELKINS, WV 1981 LSM - 1st floor 1:100,000 N383000 W0790000 TOPOGRAPHICAL METRIC
FORT NIAGARA, NY 1993 LSM - 1st floor 1:25,000 N431500 W0790000 TOPOGRAPHICAL METRIC
NIAGARA FALLS, NY 1980 LSM - 1st floor 1:25,000 N430000 W0790000 TOPOGRAPHICAL METRIC
DANVILLE, VA 1984 LSM - 1st floor 1:100,000 N363000 W0790000 TOPOGRAPHICAL METRIC
LAURINBURG, NC 1983 LSM - 1st floor 1:100,000 N343000 W0790000 TOPOGRAPHICAL METRIC